sensor_id;sensor_type;location;lat;lon;timestamp;pressure;altitude;pressure_sealevel;temperature;humidity
49459;BME280;35354;51.296;16.924;2023-10-19T00:00:40;98843.94;;;5.48;100.00
49459;BME280;35354;51.296;16.924;2023-10-19T00:03:06;98840.63;;;5.44;100.00
49459;BME280;35354;51.296;16.924;2023-10-19T00:05:32;98844.78;;;5.48;100.00
49459;BME280;35354;51.296;16.924;2023-10-19T00:08:02;98849.69;;;5.55;100.00
49459;BME280;35354;51.296;16.924;2023-10-19T00:10:32;98831.06;;;5.46;100.00
49459;BME280;35354;51.296;16.924;2023-10-19T00:13:00;98757.44;;;4.92;100.00
49459;BME280;35354;51.296;16.924;2023-10-19T00:15:30;98814.28;;;5.36;100.00
49459;BME280;35354;51.296;16.924;2023-10-19T00:17:58;98834.38;;;5.50;100.00
49459;BME280;35354;51.296;16.924;2023-10-19T00:20:31;98813.97;;;5.44;100.00
49459;BME280;35354;51.296;16.924;2023-10-19T00:23:14;98803.03;;;5.37;100.00
49459;BME280;35354;51.296;16.924;2023-10-19T00:25:44;98814.81;;;5.44;100.00
49459;BME280;35354;51.296;16.924;2023-10-19T00:28:10;98795.09;;;5.42;100.00
49459;BME280;35354;51.296;16.924;2023-10-19T00:30:38;98794.44;;;5.37;100.00
49459;BME280;35354;51.296;16.924;2023-10-19T00:33:04;98787.53;;;5.37;100.00
49459;BME280;35354;51.296;16.924;2023-10-19T00:35:34;98775.03;;;5.26;100.00
49459;BME280;35354;51.296;16.924;2023-10-19T00:38:01;98779.44;;;5.24;100.00
49459;BME280;35354;51.296;16.924;2023-10-19T00:40:53;98736.50;;;5.00;100.00
49459;BME280;35354;51.296;16.924;2023-10-19T00:43:30;98758.88;;;5.21;100.00
49459;BME280;35354;51.296;16.924;2023-10-19T00:46:17;98757.94;;;5.24;100.00
49459;BME280;35354;51.296;16.924;2023-10-19T00:48:55;98769.03;;;5.26;100.00
49459;BME280;35354;51.296;16.924;2023-10-19T00:51:32;98757.75;;;5.29;100.00
49459;BME280;35354;51.296;16.924;2023-10-19T00:54:11;98737.84;;;5.10;100.00
49459;BME280;35354;51.296;16.924;2023-10-19T00:56:43;98711.81;;;4.93;100.00
49459;BME280;35354;51.296;16.924;2023-10-19T00:59:21;98730.38;;;5.03;100.00
49459;BME280;35354;51.296;16.924;2023-10-19T01:01:53;98722.53;;;5.06;100.00
49459;BME280;35354;51.296;16.924;2023-10-19T01:04:22;98732.31;;;5.19;100.00
49459;BME280;35354;51.296;16.924;2023-10-19T01:06:57;98717.03;;;5.13;100.00
49459;BME280;35354;51.296;16.924;2023-10-19T01:09:46;98723.53;;;5.23;100.00
49459;BME280;35354;51.296;16.924;2023-10-19T01:12:12;98718.03;;;5.11;100.00
49459;BME280;35354;51.296;16.924;2023-10-19T01:15:15;98716.66;;;5.02;100.00
49459;BME280;35354;51.296;16.924;2023-10-19T01:17:54;98693.91;;;4.90;100.00
49459;BME280;35354;51.296;16.924;2023-10-19T01:20:23;98718.50;;;4.98;100.00
49459;BME280;35354;51.296;16.924;2023-10-19T01:23:02;98713.09;;;5.05;100.00
49459;BME280;35354;51.296;16.924;2023-10-19T01:25:31;98697.25;;;4.92;100.00
49459;BME280;35354;51.296;16.924;2023-10-19T01:28:03;98672.16;;;4.73;100.00
49459;BME280;35354;51.296;16.924;2023-10-19T01:30:34;98635.69;;;4.61;100.00
49459;BME280;35354;51.296;16.924;2023-10-19T01:33:01;98693.81;;;4.91;100.00
49459;BME280;35354;51.296;16.924;2023-10-19T01:35:28;98697.13;;;4.95;100.00
49459;BME280;35354;51.296;16.924;2023-10-19T01:38:13;98671.03;;;4.81;100.00
49459;BME280;35354;51.296;16.924;2023-10-19T01:40:38;98680.16;;;4.89;100.00
49459;BME280;35354;51.296;16.924;2023-10-19T01:43:11;98661.00;;;4.95;100.00
49459;BME280;35354;51.296;16.924;2023-10-19T01:45:45;98665.06;;;5.00;100.00
49459;BME280;35354;51.296;16.924;2023-10-19T01:48:10;98658.16;;;5.01;100.00
49459;BME280;35354;51.296;16.924;2023-10-19T01:50:38;98666.59;;;5.06;100.00
49459;BME280;35354;51.296;16.924;2023-10-19T01:53:04;98643.00;;;4.93;100.00
49459;BME280;35354;51.296;16.924;2023-10-19T01:55:38;98622.06;;;4.79;100.00
49459;BME280;35354;51.296;16.924;2023-10-19T01:58:03;98609.81;;;4.84;100.00
49459;BME280;35354;51.296;16.924;2023-10-19T02:00:28;98592.00;;;4.78;100.00
49459;BME280;35354;51.296;16.924;2023-10-19T02:02:54;98632.03;;;5.10;100.00
49459;BME280;35354;51.296;16.924;2023-10-19T02:05:19;98624.88;;;4.95;100.00
49459;BME280;35354;51.296;16.924;2023-10-19T02:07:47;98627.09;;;5.04;100.00
49459;BME280;35354;51.296;16.924;2023-10-19T02:10:12;98614.25;;;5.03;100.00
49459;BME280;35354;51.296;16.924;2023-10-19T02:12:38;98571.25;;;4.81;100.00
49459;BME280;35354;51.296;16.924;2023-10-19T02:15:07;98605.91;;;4.96;100.00
49459;BME280;35354;51.296;16.924;2023-10-19T02:17:33;98573.34;;;4.71;100.00
49459;BME280;35354;51.296;16.924;2023-10-19T02:19:59;98592.94;;;4.77;100.00
49459;BME280;35354;51.296;16.924;2023-10-19T02:22:24;98612.28;;;4.87;100.00
49459;BME280;35354;51.296;16.924;2023-10-19T02:24:49;98597.59;;;4.89;100.00
49459;BME280;35354;51.296;16.924;2023-10-19T02:27:15;98582.59;;;4.77;100.00
49459;BME280;35354;51.296;16.924;2023-10-19T02:29:40;98565.03;;;4.65;100.00
49459;BME280;35354;51.296;16.924;2023-10-19T02:32:07;98595.97;;;4.87;100.00
49459;BME280;35354;51.296;16.924;2023-10-19T02:34:32;98542.31;;;4.53;100.00
49459;BME280;35354;51.296;16.924;2023-10-19T02:37:00;98573.06;;;4.79;100.00
49459;BME280;35354;51.296;16.924;2023-10-19T02:39:26;98557.84;;;4.73;100.00
49459;BME280;35354;51.296;16.924;2023-10-19T02:41:53;98578.03;;;4.84;100.00
49459;BME280;35354;51.296;16.924;2023-10-19T02:44:20;98564.78;;;4.71;100.00
49459;BME280;35354;51.296;16.924;2023-10-19T02:46:52;98570.44;;;4.81;100.00
49459;BME280;35354;51.296;16.924;2023-10-19T02:49:20;98478.25;;;4.21;100.00
49459;BME280;35354;51.296;16.924;2023-10-19T02:51:47;98535.94;;;4.61;100.00
49459;BME280;35354;51.296;16.924;2023-10-19T02:54:14;98561.91;;;4.79;100.00
49459;BME280;35354;51.296;16.924;2023-10-19T02:56:51;98563.44;;;4.83;100.00
49459;BME280;35354;51.296;16.924;2023-10-19T02:59:19;98554.81;;;4.84;100.00
49459;BME280;35354;51.296;16.924;2023-10-19T03:01:52;98493.44;;;4.49;100.00
49459;BME280;35354;51.296;16.924;2023-10-19T03:04:18;98542.88;;;4.81;100.00
49459;BME280;35354;51.296;16.924;2023-10-19T03:06:43;98554.81;;;4.84;100.00
49459;BME280;35354;51.296;16.924;2023-10-19T03:09:09;98540.53;;;4.75;100.00
49459;BME280;35354;51.296;16.924;2023-10-19T03:11:45;98520.38;;;4.64;100.00
49459;BME280;35354;51.296;16.924;2023-10-19T03:14:11;98531.50;;;4.65;100.00
49459;BME280;35354;51.296;16.924;2023-10-19T03:16:37;98525.56;;;4.63;100.00
49459;BME280;35354;51.296;16.924;2023-10-19T03:19:06;98475.59;;;4.23;100.00
49459;BME280;35354;51.296;16.924;2023-10-19T03:21:33;98516.34;;;4.57;100.00
49459;BME280;35354;51.296;16.924;2023-10-19T03:24:06;98535.13;;;4.61;100.00
49459;BME280;35354;51.296;16.924;2023-10-19T03:26:32;98523.06;;;4.61;100.00
49459;BME280;35354;51.296;16.924;2023-10-19T03:29:02;98489.50;;;4.41;100.00
49459;BME280;35354;51.296;16.924;2023-10-19T03:31:37;98530.59;;;4.66;100.00
49459;BME280;35354;51.296;16.924;2023-10-19T03:34:11;98472.47;;;4.37;100.00
49459;BME280;35354;51.296;16.924;2023-10-19T03:36:42;98511.94;;;4.59;100.00
49459;BME280;35354;51.296;16.924;2023-10-19T03:39:08;98507.66;;;4.60;100.00
49459;BME280;35354;51.296;16.924;2023-10-19T03:41:38;98504.16;;;4.61;100.00
49459;BME280;35354;51.296;16.924;2023-10-19T03:44:07;98484.03;;;4.48;100.00
49459;BME280;35354;51.296;16.924;2023-10-19T03:46:38;98493.78;;;4.62;100.00
49459;BME280;35354;51.296;16.924;2023-10-19T03:49:04;98456.81;;;4.41;100.00
49459;BME280;35354;51.296;16.924;2023-10-19T03:51:39;98495.13;;;4.71;100.00
49459;BME280;35354;51.296;16.924;2023-10-19T03:54:24;98463.22;;;4.53;100.00
49459;BME280;35354;51.296;16.924;2023-10-19T03:56:50;98439.69;;;4.40;100.00
49459;BME280;35354;51.296;16.924;2023-10-19T03:59:16;98453.63;;;4.57;100.00
49459;BME280;35354;51.296;16.924;2023-10-19T04:01:43;98493.16;;;4.78;100.00
49459;BME280;35354;51.296;16.924;2023-10-19T04:04:09;98465.38;;;4.64;100.00
49459;BME280;35354;51.296;16.924;2023-10-19T04:06:35;98452.53;;;4.62;100.00
49459;BME280;35354;51.296;16.924;2023-10-19T04:09:00;98469.16;;;4.75;100.00
49459;BME280;35354;51.296;16.924;2023-10-19T04:11:26;98469.94;;;4.78;100.00
49459;BME280;35354;51.296;16.924;2023-10-19T04:13:58;98417.00;;;4.48;100.00
49459;BME280;35354;51.296;16.924;2023-10-19T04:16:28;98458.19;;;4.70;100.00
49459;BME280;35354;51.296;16.924;2023-10-19T04:18:53;98445.31;;;4.70;100.00
49459;BME280;35354;51.296;16.924;2023-10-19T04:21:19;98438.34;;;4.72;100.00
49459;BME280;35354;51.296;16.924;2023-10-19T04:23:45;98425.78;;;4.65;100.00
49459;BME280;35354;51.296;16.924;2023-10-19T04:26:12;98404.69;;;4.55;100.00
49459;BME280;35354;51.296;16.924;2023-10-19T04:28:39;98427.03;;;4.75;100.00
49459;BME280;35354;51.296;16.924;2023-10-19T04:31:14;98432.78;;;4.82;100.00
49459;BME280;35354;51.296;16.924;2023-10-19T04:33:41;98413.19;;;4.78;100.00
49459;BME280;35354;51.296;16.924;2023-10-19T04:36:14;98402.88;;;4.78;100.00
49459;BME280;35354;51.296;16.924;2023-10-19T04:38:39;98425.06;;;4.82;100.00
49459;BME280;35354;51.296;16.924;2023-10-19T04:41:08;98436.81;;;4.89;100.00
49459;BME280;35354;51.296;16.924;2023-10-19T04:43:38;98383.88;;;4.60;100.00
49459;BME280;35354;51.296;16.924;2023-10-19T04:46:08;98407.41;;;4.72;100.00
49459;BME280;35354;51.296;16.924;2023-10-19T04:48:40;98423.03;;;4.88;100.00
49459;BME280;35354;51.296;16.924;2023-10-19T04:51:07;98435.56;;;4.97;100.00
49459;BME280;35354;51.296;16.924;2023-10-19T04:53:34;98384.22;;;4.71;100.00
49459;BME280;35354;51.296;16.924;2023-10-19T04:55:59;98360.88;;;4.55;100.00
49459;BME280;35354;51.296;16.924;2023-10-19T04:58:27;98370.72;;;4.66;100.00
49459;BME280;35354;51.296;16.924;2023-10-19T05:00:53;98395.84;;;4.81;100.00
49459;BME280;35354;51.296;16.924;2023-10-19T05:03:18;98407.84;;;4.82;100.00
49459;BME280;35354;51.296;16.924;2023-10-19T05:05:44;98405.38;;;4.79;100.00
49459;BME280;35354;51.296;16.924;2023-10-19T05:08:10;98419.69;;;4.86;100.00
49459;BME280;35354;51.296;16.924;2023-10-19T05:10:35;98372.16;;;4.71;100.00
49459;BME280;35354;51.296;16.924;2023-10-19T05:13:00;98358.78;;;4.63;100.00
49459;BME280;35354;51.296;16.924;2023-10-19T05:15:26;98342.47;;;4.63;100.00
49459;BME280;35354;51.296;16.924;2023-10-19T05:17:51;98344.91;;;4.66;100.00
49459;BME280;35354;51.296;16.924;2023-10-19T05:20:16;98369.84;;;4.86;100.00
49459;BME280;35354;51.296;16.924;2023-10-19T05:22:42;98362.31;;;4.81;100.00
49459;BME280;35354;51.296;16.924;2023-10-19T05:25:07;98342.34;;;4.66;100.00
49459;BME280;35354;51.296;16.924;2023-10-19T05:27:33;98347.28;;;4.70;100.00
49459;BME280;35354;51.296;16.924;2023-10-19T05:30:00;98342.84;;;4.74;100.00
49459;BME280;35354;51.296;16.924;2023-10-19T05:32:25;98363.69;;;4.88;100.00
49459;BME280;35354;51.296;16.924;2023-10-19T05:34:50;98323.16;;;4.71;100.00
49459;BME280;35354;51.296;16.924;2023-10-19T05:37:16;98306.16;;;4.67;100.00
49459;BME280;35354;51.296;16.924;2023-10-19T05:39:42;98356.31;;;4.99;100.00
49459;BME280;35354;51.296;16.924;2023-10-19T05:42:09;98318.59;;;4.78;100.00
49459;BME280;35354;51.296;16.924;2023-10-19T05:44:34;98315.53;;;4.89;100.00
49459;BME280;35354;51.296;16.924;2023-10-19T05:47:00;98283.38;;;4.77;100.00
49459;BME280;35354;51.296;16.924;2023-10-19T05:49:25;98357.09;;;5.20;100.00
49459;BME280;35354;51.296;16.924;2023-10-19T05:51:50;98321.59;;;5.07;100.00
49459;BME280;35354;51.296;16.924;2023-10-19T05:54:16;98346.78;;;5.20;100.00
49459;BME280;35354;51.296;16.924;2023-10-19T05:56:42;98334.84;;;5.18;100.00
49459;BME280;35354;51.296;16.924;2023-10-19T05:59:07;98312.19;;;5.06;100.00
49459;BME280;35354;51.296;16.924;2023-10-19T06:01:35;98353.88;;;5.34;100.00
49459;BME280;35354;51.296;16.924;2023-10-19T06:04:00;98340.44;;;5.28;100.00
49459;BME280;35354;51.296;16.924;2023-10-19T06:06:26;98346.00;;;5.37;100.00
49459;BME280;35354;51.296;16.924;2023-10-19T06:08:51;98328.28;;;5.30;100.00
49459;BME280;35354;51.296;16.924;2023-10-19T06:11:19;98343.56;;;5.34;100.00
49459;BME280;35354;51.296;16.924;2023-10-19T06:13:44;98308.91;;;5.21;100.00
49459;BME280;35354;51.296;16.924;2023-10-19T06:16:09;98337.28;;;5.40;100.00
49459;BME280;35354;51.296;16.924;2023-10-19T06:18:35;98330.66;;;5.34;100.00
49459;BME280;35354;51.296;16.924;2023-10-19T06:21:00;98320.75;;;5.25;100.00
49459;BME280;35354;51.296;16.924;2023-10-19T06:23:25;98362.47;;;5.54;100.00
49459;BME280;35354;51.296;16.924;2023-10-19T06:25:51;98335.91;;;5.33;100.00
49459;BME280;35354;51.296;16.924;2023-10-19T06:28:19;98313.50;;;5.33;100.00
49459;BME280;35354;51.296;16.924;2023-10-19T06:30:44;98283.94;;;5.03;100.00
49459;BME280;35354;51.296;16.924;2023-10-19T06:33:13;98321.81;;;5.40;100.00
49459;BME280;35354;51.296;16.924;2023-10-19T06:35:38;98329.94;;;5.49;99.95
49459;BME280;35354;51.296;16.924;2023-10-19T06:38:05;98277.09;;;5.20;99.52
49459;BME280;35354;51.296;16.924;2023-10-19T06:40:34;98331.34;;;5.57;99.73
49459;BME280;35354;51.296;16.924;2023-10-19T06:42:59;98336.41;;;5.58;99.75
49459;BME280;35354;51.296;16.924;2023-10-19T06:45:27;98335.94;;;5.69;99.65
49459;BME280;35354;51.296;16.924;2023-10-19T06:47:54;98308.97;;;5.56;99.87
49459;BME280;35354;51.296;16.924;2023-10-19T06:50:21;98349.97;;;5.81;99.76
49459;BME280;35354;51.296;16.924;2023-10-19T06:52:47;98330.31;;;5.78;99.37
49459;BME280;35354;51.296;16.924;2023-10-19T06:55:13;98308.16;;;5.72;99.35
49459;BME280;35354;51.296;16.924;2023-10-19T06:57:48;98300.97;;;5.62;99.30
49459;BME280;35354;51.296;16.924;2023-10-19T07:00:18;98343.63;;;5.88;99.51
49459;BME280;35354;51.296;16.924;2023-10-19T07:02:50;98292.97;;;5.66;99.77
49459;BME280;35354;51.296;16.924;2023-10-19T07:05:16;98301.91;;;5.78;99.73
49459;BME280;35354;51.296;16.924;2023-10-19T07:07:55;98335.22;;;6.02;100.00
49459;BME280;35354;51.296;16.924;2023-10-19T07:10:22;98295.50;;;5.85;99.75
49459;BME280;35354;51.296;16.924;2023-10-19T07:12:50;98306.41;;;5.92;99.95
49459;BME280;35354;51.296;16.924;2023-10-19T07:15:17;98316.97;;;6.05;100.00
49459;BME280;35354;51.296;16.924;2023-10-19T07:17:49;98334.31;;;6.20;100.00
49459;BME280;35354;51.296;16.924;2023-10-19T07:20:18;98323.34;;;6.15;100.00
49459;BME280;35354;51.296;16.924;2023-10-19T07:23:04;98317.34;;;6.14;100.00
49459;BME280;35354;51.296;16.924;2023-10-19T07:25:56;98309.34;;;6.19;100.00
49459;BME280;35354;51.296;16.924;2023-10-19T07:28:26;98314.38;;;6.22;100.00
49459;BME280;35354;51.296;16.924;2023-10-19T07:30:54;98314.84;;;6.30;100.00
49459;BME280;35354;51.296;16.924;2023-10-19T07:33:22;98316.50;;;6.31;100.00
49459;BME280;35354;51.296;16.924;2023-10-19T07:35:49;98315.13;;;6.41;100.00
49459;BME280;35354;51.296;16.924;2023-10-19T07:38:24;98308.13;;;6.43;100.00
49459;BME280;35354;51.296;16.924;2023-10-19T07:40:50;98230.63;;;6.09;100.00
49459;BME280;35354;51.296;16.924;2023-10-19T07:43:19;98283.63;;;6.50;100.00
49459;BME280;35354;51.296;16.924;2023-10-19T07:45:45;98279.13;;;6.54;100.00
49459;BME280;35354;51.296;16.924;2023-10-19T07:48:13;98292.94;;;6.70;100.00
49459;BME280;35354;51.296;16.924;2023-10-19T07:50:39;98285.53;;;6.80;100.00
49459;BME280;35354;51.296;16.924;2023-10-19T07:53:08;98258.28;;;6.73;100.00
49459;BME280;35354;51.296;16.924;2023-10-19T07:55:35;98278.94;;;6.90;100.00
49459;BME280;35354;51.296;16.924;2023-10-19T07:58:00;98280.19;;;6.83;100.00
49459;BME280;35354;51.296;16.924;2023-10-19T08:00:28;98242.81;;;6.56;100.00
49459;BME280;35354;51.296;16.924;2023-10-19T08:02:54;98250.47;;;6.74;100.00
49459;BME280;35354;51.296;16.924;2023-10-19T08:05:20;98247.69;;;6.78;100.00
49459;BME280;35354;51.296;16.924;2023-10-19T08:07:46;98213.19;;;6.61;100.00
49459;BME280;35354;51.296;16.924;2023-10-19T08:10:13;98210.97;;;6.71;100.00
49459;BME280;35354;51.296;16.924;2023-10-19T08:12:41;98227.50;;;7.00;100.00
49459;BME280;35354;51.296;16.924;2023-10-19T08:15:10;98220.47;;;7.02;100.00
49459;BME280;35354;51.296;16.924;2023-10-19T08:17:39;98242.94;;;7.17;100.00
49459;BME280;35354;51.296;16.924;2023-10-19T08:20:09;98205.13;;;6.99;100.00
49459;BME280;35354;51.296;16.924;2023-10-19T08:22:44;98210.03;;;7.04;100.00
49459;BME280;35354;51.296;16.924;2023-10-19T08:25:12;98224.16;;;7.14;100.00
49459;BME280;35354;51.296;16.924;2023-10-19T08:27:43;98202.94;;;7.07;100.00
49459;BME280;35354;51.296;16.924;2023-10-19T08:30:18;98199.25;;;7.11;100.00
49459;BME280;35354;51.296;16.924;2023-10-19T08:32:44;98235.00;;;7.20;100.00
49459;BME280;35354;51.296;16.924;2023-10-19T08:35:13;98188.75;;;6.98;100.00
49459;BME280;35354;51.296;16.924;2023-10-19T08:37:39;98214.53;;;7.16;100.00
49459;BME280;35354;51.296;16.924;2023-10-19T08:40:06;98190.50;;;6.98;100.00
49459;BME280;35354;51.296;16.924;2023-10-19T08:42:32;98205.09;;;7.15;100.00
49459;BME280;35354;51.296;16.924;2023-10-19T08:44:59;98237.50;;;7.38;100.00
49459;BME280;35354;51.296;16.924;2023-10-19T08:47:25;98237.66;;;7.35;100.00
49459;BME280;35354;51.296;16.924;2023-10-19T08:49:53;98197.69;;;7.09;100.00
49459;BME280;35354;51.296;16.924;2023-10-19T08:52:21;98224.25;;;7.12;100.00
49459;BME280;35354;51.296;16.924;2023-10-19T08:54:49;98254.28;;;7.31;100.00
49459;BME280;35354;51.296;16.924;2023-10-19T08:57:15;98229.41;;;7.28;100.00
49459;BME280;35354;51.296;16.924;2023-10-19T08:59:40;98215.03;;;7.22;100.00
49459;BME280;35354;51.296;16.924;2023-10-19T09:02:06;98215.03;;;7.22;100.00
49459;BME280;35354;51.296;16.924;2023-10-19T09:04:32;98232.22;;;7.39;100.00
49459;BME280;35354;51.296;16.924;2023-10-19T09:06:57;98214.78;;;7.27;100.00
49459;BME280;35354;51.296;16.924;2023-10-19T09:09:23;98240.09;;;7.38;100.00
49459;BME280;35354;51.296;16.924;2023-10-19T09:11:51;98210.78;;;7.21;100.00
49459;BME280;35354;51.296;16.924;2023-10-19T09:14:31;98198.44;;;7.11;100.00
49459;BME280;35354;51.296;16.924;2023-10-19T09:16:59;98208.19;;;7.21;100.00
49459;BME280;35354;51.296;16.924;2023-10-19T09:19:55;98252.94;;;7.39;100.00
49459;BME280;35354;51.296;16.924;2023-10-19T09:22:21;98246.38;;;7.34;100.00
49459;BME280;35354;51.296;16.924;2023-10-19T09:24:50;98235.00;;;7.20;100.00
49459;BME280;35354;51.296;16.924;2023-10-19T09:27:19;98221.66;;;7.12;100.00
49459;BME280;35354;51.296;16.924;2023-10-19T09:29:46;98228.16;;;7.04;100.00
49459;BME280;35354;51.296;16.924;2023-10-19T09:32:11;98217.31;;;7.13;100.00
49459;BME280;35354;51.296;16.924;2023-10-19T09:34:40;98229.66;;;7.23;100.00
49459;BME280;35354;51.296;16.924;2023-10-19T09:37:09;98231.91;;;7.30;100.00
49459;BME280;35354;51.296;16.924;2023-10-19T09:39:35;98249.00;;;7.48;100.00
49459;BME280;35354;51.296;16.924;2023-10-19T09:42:02;98250.25;;;7.57;100.00
49459;BME280;35354;51.296;16.924;2023-10-19T09:44:38;98218.91;;;7.45;100.00
49459;BME280;35354;51.296;16.924;2023-10-19T09:47:10;98253.91;;;7.68;100.00
49459;BME280;35354;51.296;16.924;2023-10-19T09:49:38;98221.84;;;7.55;100.00
49459;BME280;35354;51.296;16.924;2023-10-19T09:52:04;98221.47;;;7.61;100.00
49459;BME280;35354;51.296;16.924;2023-10-19T09:54:47;98199.47;;;7.38;100.00
49459;BME280;35354;51.296;16.924;2023-10-19T09:57:17;98196.78;;;7.40;100.00
49459;BME280;35354;51.296;16.924;2023-10-19T09:59:45;98180.84;;;7.32;100.00
49459;BME280;35354;51.296;16.924;2023-10-19T10:02:15;98213.31;;;7.53;100.00
49459;BME280;35354;51.296;16.924;2023-10-19T10:04:43;98207.25;;;7.38;100.00
49459;BME280;35354;51.296;16.924;2023-10-19T10:07:11;98198.97;;;7.32;100.00
49459;BME280;35354;51.296;16.924;2023-10-19T10:09:38;98190.66;;;7.27;100.00
49459;BME280;35354;51.296;16.924;2023-10-19T10:12:22;98159.06;;;7.20;100.00
49459;BME280;35354;51.296;16.924;2023-10-19T10:17:21;98112.13;;;6.96;100.00
49459;BME280;35354;51.296;16.924;2023-10-19T10:19:48;98147.06;;;7.19;100.00
49459;BME280;35354;51.296;16.924;2023-10-19T10:22:13;98157.47;;;7.33;100.00
49459;BME280;35354;51.296;16.924;2023-10-19T10:24:45;98101.09;;;6.92;100.00
49459;BME280;35354;51.296;16.924;2023-10-19T10:27:11;98156.56;;;7.18;100.00
49459;BME280;35354;51.296;16.924;2023-10-19T10:30:00;98167.56;;;7.38;100.00
49459;BME280;35354;51.296;16.924;2023-10-19T10:32:51;98145.03;;;7.24;100.00
49459;BME280;35354;51.296;16.924;2023-10-19T10:38:09;98136.94;;;7.44;100.00
49459;BME280;35354;51.296;16.924;2023-10-19T10:40:48;98168.16;;;7.57;100.00
49459;BME280;35354;51.296;16.924;2023-10-19T10:43:15;98132.31;;;7.49;100.00
49459;BME280;35354;51.296;16.924;2023-10-19T10:45:41;98143.41;;;7.67;100.00
49459;BME280;35354;51.296;16.924;2023-10-19T10:48:17;98087.91;;;7.41;100.00
49459;BME280;35354;51.296;16.924;2023-10-19T10:50:44;98122.84;;;7.64;100.00
49459;BME280;35354;51.296;16.924;2023-10-19T10:53:12;98096.00;;;7.51;100.00
49459;BME280;35354;51.296;16.924;2023-10-19T10:55:38;98097.66;;;7.52;100.00
49459;BME280;35354;51.296;16.924;2023-10-19T10:58:04;98125.16;;;7.69;100.00
49459;BME280;35354;51.296;16.924;2023-10-19T11:00:30;98106.09;;;7.70;100.00
49459;BME280;35354;51.296;16.924;2023-10-19T11:05:26;98089.88;;;7.66;100.00
49459;BME280;35354;51.296;16.924;2023-10-19T11:08:06;98104.63;;;7.80;100.00
49459;BME280;35354;51.296;16.924;2023-10-19T11:10:33;98100.34;;;7.79;100.00
49459;BME280;35354;51.296;16.924;2023-10-19T11:13:03;98078.91;;;7.63;100.00
49459;BME280;35354;51.296;16.924;2023-10-19T11:15:29;98071.00;;;7.64;100.00
49459;BME280;35354;51.296;16.924;2023-10-19T11:17:54;98092.03;;;7.74;100.00
49459;BME280;35354;51.296;16.924;2023-10-19T11:20:24;98062.50;;;7.48;100.00
49459;BME280;35354;51.296;16.924;2023-10-19T11:22:51;98018.25;;;7.37;100.00
49459;BME280;35354;51.296;16.924;2023-10-19T11:25:18;98048.03;;;7.58;100.00
49459;BME280;35354;51.296;16.924;2023-10-19T11:27:43;98073.41;;;7.82;100.00
49459;BME280;35354;51.296;16.924;2023-10-19T11:30:09;98058.63;;;7.84;100.00
49459;BME280;35354;51.296;16.924;2023-10-19T11:32:37;98067.69;;;7.77;100.00
49459;BME280;35354;51.296;16.924;2023-10-19T11:35:06;98035.09;;;7.58;100.00
49459;BME280;35354;51.296;16.924;2023-10-19T11:37:49;98054.81;;;7.75;100.00
49459;BME280;35354;51.296;16.924;2023-10-19T11:40:15;98039.44;;;7.58;100.00
49459;BME280;35354;51.296;16.924;2023-10-19T11:42:40;98046.03;;;7.63;100.00
49459;BME280;35354;51.296;16.924;2023-10-19T11:45:06;98024.91;;;7.69;100.00
49459;BME280;35354;51.296;16.924;2023-10-19T11:47:32;98048.06;;;7.72;100.00
49459;BME280;35354;51.296;16.924;2023-10-19T11:49:57;98006.81;;;7.55;100.00
49459;BME280;35354;51.296;16.924;2023-10-19T11:52:22;98037.69;;;7.72;100.00
49459;BME280;35354;51.296;16.924;2023-10-19T11:54:48;98050.09;;;7.82;100.00
49459;BME280;35354;51.296;16.924;2023-10-19T11:57:13;97987.38;;;7.48;100.00
49459;BME280;35354;51.296;16.924;2023-10-19T11:59:39;98025.47;;;7.74;100.00
49459;BME280;35354;51.296;16.924;2023-10-19T12:02:06;97974.78;;;7.42;100.00
49459;BME280;35354;51.296;16.924;2023-10-19T12:04:32;98005.03;;;7.56;100.00
49459;BME280;35354;51.296;16.924;2023-10-19T12:07:01;98038.72;;;7.84;100.00
49459;BME280;35354;51.296;16.924;2023-10-19T12:09:26;98046.28;;;7.87;100.00
49459;BME280;35354;51.296;16.924;2023-10-19T12:11:53;98011.03;;;7.70;100.00
49459;BME280;35354;51.296;16.924;2023-10-19T12:14:19;97985.69;;;7.61;100.00
49459;BME280;35354;51.296;16.924;2023-10-19T12:16:46;98016.69;;;7.77;100.00
49459;BME280;35354;51.296;16.924;2023-10-19T12:19:12;97984.03;;;7.60;100.00
49459;BME280;35354;51.296;16.924;2023-10-19T12:21:39;97965.13;;;7.58;100.00
49459;BME280;35354;51.296;16.924;2023-10-19T12:24:07;97965.78;;;7.62;100.00
49459;BME280;35354;51.296;16.924;2023-10-19T12:26:33;98008.72;;;7.80;100.00
49459;BME280;35354;51.296;16.924;2023-10-19T12:28:58;98019.66;;;7.85;100.00
49459;BME280;35354;51.296;16.924;2023-10-19T12:31:24;97941.56;;;7.48;100.00
49459;BME280;35354;51.296;16.924;2023-10-19T12:33:50;98003.06;;;7.88;100.00
49459;BME280;35354;51.296;16.924;2023-10-19T12:36:15;97969.50;;;7.58;100.00
49459;BME280;35354;51.296;16.924;2023-10-19T12:38:56;97970.25;;;7.60;100.00
49459;BME280;35354;51.296;16.924;2023-10-19T12:41:22;97984.47;;;7.81;100.00
49459;BME280;35354;51.296;16.924;2023-10-19T12:43:49;97974.00;;;7.83;100.00
49459;BME280;35354;51.296;16.924;2023-10-19T12:46:17;97980.94;;;7.96;100.00
49459;BME280;35354;51.296;16.924;2023-10-19T12:48:44;97964.53;;;7.96;100.00
49459;BME280;35354;51.296;16.924;2023-10-19T12:51:12;97942.59;;;7.87;100.00
49459;BME280;35354;51.296;16.924;2023-10-19T12:53:39;97870.78;;;7.48;100.00
49459;BME280;35354;51.296;16.924;2023-10-19T12:56:05;97957.50;;;7.98;100.00
49459;BME280;35354;51.296;16.924;2023-10-19T12:58:31;97965.63;;;8.06;100.00
49459;BME280;35354;51.296;16.924;2023-10-19T13:00:57;97924.47;;;7.87;100.00
49459;BME280;35354;51.296;16.924;2023-10-19T13:03:23;97954.97;;;8.11;100.00
49459;BME280;35354;51.296;16.924;2023-10-19T13:05:52;97899.78;;;7.82;100.00